createdAt,value
2019-03-21T00:00:27.649Z,15.20
2019-03-21T00:05:18.116Z,14.10
2019-03-21T00:10:10.316Z,13.80
2019-03-21T00:15:02.623Z,12.40
2019-03-21T00:19:54.309Z,16.70
2019-03-21T00:24:46.097Z,16.00
2019-03-21T00:29:37.902Z,15.60
2019-03-21T00:34:29.816Z,12.80
2019-03-21T00:39:32.144Z,13.30
2019-03-21T00:44:24.743Z,15.50
2019-03-21T00:49:15.537Z,12.30
2019-03-21T00:54:08.575Z,14.20
2019-03-21T00:59:00.310Z,12.70
2019-03-21T01:03:53.950Z,13.30
2019-03-21T01:08:45.870Z,13.40
2019-03-21T01:13:37.681Z,11.20
2019-03-21T01:18:29.060Z,14.00
2019-03-21T01:23:20.739Z,17.00
2019-03-21T01:28:11.570Z,10.80
2019-03-21T01:33:02.433Z,10.40
2019-03-21T01:37:53.550Z,11.30
2019-03-21T01:42:44.792Z,18.00
2019-03-21T01:47:36.575Z,11.50
2019-03-21T01:52:28.382Z,20.50
2019-03-21T01:57:21.992Z,15.70
2019-03-21T02:02:13.482Z,16.00
2019-03-21T02:07:05.279Z,11.70
2019-03-21T02:11:57.273Z,11.30
2019-03-21T02:16:49.216Z,11.90
2019-03-21T02:21:41.096Z,10.20
2019-03-21T02:26:33.140Z,10.20
2019-03-21T02:31:25.296Z,11.30
2019-03-21T02:36:17.722Z,12.70
2019-03-21T02:41:09.740Z,13.90
2019-03-21T02:46:01.845Z,9.90
2019-03-21T02:50:53.776Z,9.50
2019-03-21T02:55:46.190Z,11.90
2019-03-21T03:00:38.908Z,14.60
2019-03-21T03:05:30.248Z,8.90
2019-03-21T03:10:22.154Z,15.20
2019-03-21T03:15:22.313Z,13.30
2019-03-21T03:20:15.227Z,9.80
2019-03-21T03:25:07.102Z,11.80
2019-03-21T03:29:58.803Z,16.90
2019-03-21T03:34:51.203Z,16.50
2019-03-21T03:39:43.055Z,22.40
2019-03-21T03:44:35.364Z,13.20
2019-03-21T03:49:26.925Z,16.20
2019-03-21T03:54:18.624Z,14.90
2019-03-21T03:59:10.798Z,14.30
2019-03-21T04:04:02.696Z,14.10
2019-03-21T04:08:54.367Z,14.00
2019-03-21T04:13:46.522Z,11.50
2019-03-21T04:18:38.493Z,14.50
2019-03-21T04:23:30.309Z,11.40
2019-03-21T04:28:22.855Z,14.00
2019-03-21T04:33:15.046Z,10.60
2019-03-21T04:38:07.191Z,21.10
2019-03-21T04:42:59.273Z,13.70
2019-03-21T04:47:51.376Z,12.60
2019-03-21T04:52:43.365Z,15.00
2019-03-21T04:57:35.469Z,13.00
2019-03-21T05:02:27.474Z,15.30
2019-03-21T05:07:19.413Z,13.60
2019-03-21T05:12:11.476Z,12.80
2019-03-21T05:17:03.222Z,10.40
2019-03-21T05:21:55.211Z,13.40
2019-03-21T05:26:47.123Z,18.80
2019-03-21T05:31:39.164Z,14.30
2019-03-21T05:36:30.992Z,18.80
2019-03-21T05:41:22.788Z,18.70
2019-03-21T05:46:25.595Z,15.30
2019-03-21T05:51:16.130Z,17.90
2019-03-21T05:56:07.984Z,17.00
2019-03-21T06:01:00.837Z,15.90
2019-03-21T06:05:52.329Z,25.30
2019-03-21T06:10:44.452Z,20.80
2019-03-21T06:15:36.275Z,26.10
2019-03-21T06:20:28.437Z,25.20
2019-03-21T06:25:20.565Z,15.00
2019-03-21T06:30:14.694Z,17.40
2019-03-21T06:35:06.290Z,17.00
2019-03-21T06:40:00.442Z,19.20
2019-03-21T06:44:52.179Z,14.10
2019-03-21T06:49:46.446Z,18.00
2019-03-21T06:54:37.643Z,11.80
2019-03-21T06:59:29.872Z,19.70
2019-03-21T07:04:21.875Z,14.80
2019-03-21T07:09:14.314Z,14.30
2019-03-21T07:14:06.840Z,15.00
2019-03-21T07:18:58.996Z,16.20
2019-03-21T07:23:51.292Z,14.90
2019-03-21T07:28:43.695Z,12.40
2019-03-21T07:33:36.041Z,13.40
2019-03-21T07:38:29.016Z,18.20
2019-03-21T07:43:22.367Z,15.60
2019-03-21T07:48:14.563Z,18.80
2019-03-21T07:53:06.845Z,15.80
2019-03-21T07:57:59.510Z,14.40
2019-03-21T08:02:51.969Z,13.30
2019-03-21T08:07:44.457Z,15.50
2019-03-21T08:12:36.812Z,14.10
2019-03-21T08:17:29.237Z,12.80
2019-03-21T08:22:21.546Z,17.30
2019-03-21T08:27:16.285Z,12.90
2019-03-21T08:32:08.283Z,19.90
2019-03-21T08:37:01.233Z,11.20
2019-03-21T08:41:53.944Z,10.60
2019-03-21T08:46:46.452Z,19.40
2019-03-21T08:51:38.581Z,11.50
2019-03-21T08:56:32.770Z,10.40
2019-03-21T09:01:24.574Z,10.90
2019-03-21T09:06:16.951Z,12.00
2019-03-21T09:11:09.194Z,15.30
2019-03-21T09:16:01.819Z,10.80
2019-03-21T09:20:54.376Z,14.20
2019-03-21T09:25:46.630Z,12.90
2019-03-21T09:30:38.884Z,11.10
2019-03-21T09:35:31.397Z,17.80
2019-03-21T09:40:23.851Z,13.80
2019-03-21T09:45:16.279Z,16.70
2019-03-21T09:50:08.862Z,12.30
2019-03-21T09:55:01.630Z,12.10
2019-03-21T09:59:52.491Z,12.10
2019-03-21T10:04:44.158Z,10.70
2019-03-21T10:09:35.633Z,12.50
2019-03-21T10:14:27.163Z,11.20
2019-03-21T10:19:18.630Z,14.00
2019-03-21T10:24:10.078Z,13.60
2019-03-21T10:29:00.946Z,12.30
2019-03-21T10:33:52.554Z,11.80
2019-03-21T10:38:44.851Z,10.60
2019-03-21T10:43:37.391Z,9.80
2019-03-21T10:48:29.807Z,9.20
2019-03-21T10:53:22.125Z,7.10
2019-03-21T10:58:17.136Z,7.70
2019-03-21T11:03:09.217Z,7.90
2019-03-21T11:08:01.715Z,7.70
2019-03-21T11:12:54.165Z,6.50
2019-03-21T11:17:46.387Z,7.00
2019-03-21T11:22:38.609Z,7.90
2019-03-21T11:27:32.939Z,6.80
2019-03-21T11:32:24.894Z,6.90
2019-03-21T11:37:17.519Z,7.20
2019-03-21T11:42:09.892Z,7.70
2019-03-21T11:47:02.273Z,6.70
2019-03-21T11:51:54.975Z,6.60
2019-03-21T11:56:47.597Z,5.90
2019-03-21T12:01:40.077Z,8.00
2019-03-21T12:06:32.310Z,6.00
2019-03-21T12:11:24.569Z,4.30
2019-03-21T12:16:17.041Z,5.90
2019-03-21T12:21:09.712Z,7.70
2019-03-21T12:26:02.253Z,5.00
2019-03-21T12:30:54.871Z,2.30
2019-03-21T12:35:47.584Z,6.80
2019-03-21T12:40:40.441Z,3.70
2019-03-21T12:45:33.301Z,5.40
2019-03-21T12:50:26.174Z,7.20
2019-03-21T12:55:18.711Z,10.20
2019-03-21T13:00:11.381Z,6.00
2019-03-21T13:05:04.100Z,10.70
2019-03-21T13:09:56.534Z,7.20
2019-03-21T13:14:48.387Z,6.30
2019-03-21T13:19:40.636Z,6.90
2019-03-21T13:24:33.161Z,6.30
2019-03-21T13:29:25.873Z,7.40
2019-03-21T13:34:18.386Z,6.40
2019-03-21T13:39:11.623Z,6.60
2019-03-21T13:44:05.745Z,7.00
2019-03-21T13:48:57.300Z,7.20
2019-03-21T13:53:49.652Z,6.90
2019-03-21T13:58:41.966Z,7.50
2019-03-21T14:03:36.725Z,8.20
2019-03-21T14:08:28.740Z,7.80
2019-03-21T14:13:21.171Z,9.60
2019-03-21T14:18:13.508Z,9.00
2019-03-21T14:23:16.297Z,9.10
2019-03-21T14:28:07.021Z,14.10
2019-03-21T14:32:59.248Z,10.10
2019-03-21T14:37:51.369Z,7.30
2019-03-21T14:42:43.584Z,8.00
2019-03-21T14:47:36.682Z,9.10
2019-03-21T14:52:29.038Z,9.80
2019-03-21T14:57:22.306Z,7.40
2019-03-21T15:02:14.110Z,9.30
2019-03-21T15:07:06.002Z,9.00
2019-03-21T15:11:58.310Z,10.20
2019-03-21T15:16:50.840Z,9.00
2019-03-21T15:21:42.683Z,8.30
2019-03-21T15:26:34.935Z,10.70
2019-03-21T15:31:27.017Z,9.20
2019-03-21T15:36:19.420Z,8.90
2019-03-21T15:41:12.623Z,8.00
2019-03-21T15:46:04.599Z,8.30
2019-03-21T15:51:04.124Z,10.70
2019-03-21T15:55:54.946Z,8.80
2019-03-21T16:00:46.958Z,11.20
2019-03-21T16:05:39.046Z,8.50
2019-03-21T16:10:31.119Z,10.30
2019-03-21T16:15:23.606Z,11.10
2019-03-21T16:20:15.813Z,10.00
2019-03-21T16:25:07.871Z,9.90
2019-03-21T16:29:59.799Z,12.10
2019-03-21T16:34:54.427Z,15.00
2019-03-21T16:39:46.194Z,13.90
2019-03-21T16:44:38.503Z,12.80
2019-03-21T16:49:30.736Z,14.30
2019-03-21T16:54:22.994Z,14.80
2019-03-21T16:59:15.227Z,15.00
2019-03-21T17:04:07.371Z,13.60
2019-03-21T17:08:59.155Z,12.40
2019-03-21T17:13:51.432Z,13.00
2019-03-21T17:18:43.766Z,13.30
2019-03-21T17:23:35.853Z,12.90
2019-03-21T17:28:28.040Z,12.00
2019-03-21T17:33:20.267Z,12.60
2019-03-21T17:38:12.172Z,10.80
2019-03-21T17:43:04.392Z,17.00
2019-03-21T17:47:58.673Z,14.90
2019-03-21T17:52:50.138Z,13.50
2019-03-21T17:57:42.230Z,14.20
2019-03-21T18:02:36.468Z,12.50
2019-03-21T18:07:28.181Z,27.30
2019-03-21T18:12:20.591Z,17.90
2019-03-21T18:17:12.595Z,19.20
2019-03-21T18:22:04.653Z,15.80
2019-03-21T18:26:56.614Z,22.20
2019-03-21T18:31:48.578Z,19.50
2019-03-21T18:36:40.742Z,21.00
2019-03-21T18:41:32.616Z,22.60
2019-03-21T18:46:26.494Z,19.50
2019-03-21T18:51:18.116Z,19.90
2019-03-21T18:56:09.921Z,17.80
2019-03-21T19:01:01.992Z,18.80
2019-03-21T19:05:53.981Z,18.20
2019-03-21T19:10:45.932Z,17.40
2019-03-21T19:15:37.891Z,22.10
2019-03-21T19:20:30.003Z,21.70
2019-03-21T19:25:21.931Z,23.20
2019-03-21T19:30:14.870Z,24.80
2019-03-21T19:35:07.233Z,28.40
2019-03-21T19:39:59.147Z,26.30
2019-03-21T19:44:51.164Z,28.00
2019-03-21T19:49:43.327Z,25.60
2019-03-21T19:54:35.307Z,19.70
2019-03-21T19:59:27.238Z,24.00
2019-03-21T20:04:19.343Z,18.90
2019-03-21T20:09:11.422Z,22.10
2019-03-21T20:14:04.055Z,31.20
2019-03-21T20:18:55.749Z,21.70
2019-03-21T20:23:47.706Z,23.90
2019-03-21T20:28:39.854Z,28.00
2019-03-21T20:33:31.774Z,23.20
2019-03-21T20:38:23.796Z,27.60
2019-03-21T20:43:15.892Z,22.50
2019-03-21T20:48:07.951Z,27.50
2019-03-21T20:52:59.928Z,26.60
2019-03-21T20:57:52.126Z,27.10
2019-03-21T21:02:44.073Z,24.30
2019-03-21T21:07:36.235Z,28.10
2019-03-21T21:12:28.337Z,28.60
2019-03-21T21:17:20.244Z,29.20
2019-03-21T21:22:12.087Z,24.90
2019-03-21T21:27:04.233Z,26.50
2019-03-21T21:31:56.018Z,27.70
2019-03-21T21:36:48.135Z,27.30
2019-03-21T21:41:39.987Z,31.70
2019-03-21T21:46:32.027Z,29.00
2019-03-21T21:51:24.057Z,27.60
2019-03-21T21:56:17.702Z,30.70
2019-03-21T22:01:09.251Z,23.10
2019-03-21T22:06:04.952Z,33.30
2019-03-21T22:10:56.130Z,29.50
2019-03-21T22:15:48.166Z,29.30
2019-03-21T22:20:40.263Z,30.20
2019-03-21T22:25:34.591Z,36.40
2019-03-21T22:30:25.948Z,38.40
2019-03-21T22:35:18.051Z,31.90
2019-03-21T22:40:09.962Z,39.10
